Time;durP1;ratioP1;P1;durP2;ratioP2;P2;SDS_P1;SDS_P2;PMS_P1;PMS_P2;Temp;Humidity;BMP_temperature;BMP_pressure;BME280_temperature;BME280_humidity;BME280_pressure;Samples;Min_cycle;Max_cycle;Signal;HPM_P1;HPM_P2
2021/09/24 00:00:34;;;;;;;11.93;8.00;;;16.70;92.80;;;;;;4877665;29;20041;-78
2021/09/24 00:03:00;;;;;;;14.57;9.75;;;16.70;92.80;;;;;;4895674;29;20076;-78
2021/09/24 00:05:26;;;;;;;19.17;11.85;;;16.80;92.90;;;;;;4911586;29;20059;-80
2021/09/24 00:07:52;;;;;;;17.67;10.38;;;16.80;92.90;;;;;;4880867;29;20115;-78
2021/09/24 00:10:20;;;;;;;13.88;9.77;;;16.80;93.10;;;;;;4904915;29;20044;-78
2021/09/24 00:12:46;;;;;;;12.27;9.38;;;16.80;93.00;;;;;;4896204;29;20564;-78
2021/09/24 00:15:15;;;;;;;14.32;9.80;;;16.70;93.00;;;;;;4895155;29;20515;-78
2021/09/24 00:17:41;;;;;;;14.27;10.43;;;16.70;93.10;;;;;;4893401;29;20100;-78
2021/09/24 00:20:08;;;;;;;14.48;10.98;;;16.70;93.10;;;;;;4877670;29;20024;-78
2021/09/24 00:22:34;;;;;;;12.63;10.13;;;16.70;93.10;;;;;;4892495;29;20089;-78
2021/09/24 00:24:59;;;;;;;15.35;10.57;;;16.70;93.20;;;;;;4909108;29;20037;-78
2021/09/24 00:27:25;;;;;;;13.18;10.80;;;16.70;93.20;;;;;;4893776;29;20033;-79
2021/09/24 00:29:51;;;;;;;14.50;11.27;;;16.70;93.20;;;;;;4878586;29;20032;-78
2021/09/24 00:32:16;;;;;;;15.40;10.55;;;16.70;93.20;;;;;;4899235;29;20032;-78
2021/09/24 00:34:42;;;;;;;15.60;10.82;;;16.70;93.30;;;;;;4898962;29;20037;-78
2021/09/24 00:37:09;;;;;;;13.48;11.00;;;16.70;93.30;;;;;;4892023;29;20577;-78
2021/09/24 00:39:34;;;;;;;13.15;10.32;;;16.70;93.30;;;;;;4897676;29;20056;-78
2021/09/24 00:42:00;;;;;;;15.48;10.38;;;16.70;93.30;;;;;;4896193;29;20063;-78
2021/09/24 00:44:27;;;;;;;15.02;10.38;;;16.70;93.40;;;;;;4867115;29;20140;-78
2021/09/24 00:46:57;;;;;;;12.85;10.63;;;16.70;93.40;;;;;;4898429;29;20544;-79
2021/09/24 00:49:22;;;;;;;13.77;11.32;;;16.70;93.40;;;;;;4909753;29;20180;-79
2021/09/24 00:51:48;;;;;;;15.80;10.77;;;16.70;93.50;;;;;;4914807;29;20040;-78
2021/09/24 00:54:14;;;;;;;11.00;9.80;;;16.70;93.50;;;;;;4887078;29;20421;-77
2021/09/24 00:56:40;;;;;;;15.50;10.30;;;16.70;93.50;;;;;;4895567;29;20060;-78
2021/09/24 00:59:05;;;;;;;12.45;10.63;;;16.70;93.50;;;;;;4897383;29;20036;-79
2021/09/24 01:01:31;;;;;;;17.75;10.95;;;16.70;93.60;;;;;;4896331;29;20040;-78
2021/09/24 01:03:57;;;;;;;21.13;11.18;;;16.70;93.60;;;;;;4911463;29;20101;-79
2021/09/24 01:06:22;;;;;;;13.48;9.82;;;16.70;93.70;;;;;;4895951;29;20685;-79
2021/09/24 01:08:49;;;;;;;16.58;10.75;;;16.70;93.70;;;;;;4906801;29;20055;-78
2021/09/24 01:11:14;;;;;;;17.30;9.90;;;16.70;93.70;;;;;;4869287;29;20064;-78
2021/09/24 01:13:40;;;;;;;15.07;9.60;;;16.70;93.70;;;;;;4879939;29;20406;-79
2021/09/24 01:16:06;;;;;;;13.48;9.70;;;16.70;93.70;;;;;;4912147;29;20150;-79
2021/09/24 01:18:31;;;;;;;17.17;10.18;;;16.70;93.70;;;;;;4885469;29;20331;-79
2021/09/24 01:20:58;;;;;;;14.80;9.30;;;16.70;93.70;;;;;;4895339;29;20594;-78
2021/09/24 01:23:24;;;;;;;14.38;9.65;;;16.70;93.80;;;;;;4902122;29;20055;-78
2021/09/24 01:25:50;;;;;;;15.73;9.98;;;16.70;93.80;;;;;;4897780;29;20717;-78
2021/09/24 01:28:16;;;;;;;17.20;11.07;;;16.70;93.80;;;;;;4884423;29;20417;-78
2021/09/24 01:30:42;;;;;;;18.60;11.07;;;16.70;93.80;;;;;;4879700;29;20033;-79
2021/09/24 01:33:08;;;;;;;20.35;13.00;;;16.70;93.80;;;;;;4881293;29;20526;-78
2021/09/24 01:35:33;;;;;;;14.80;10.68;;;16.70;93.90;;;;;;4881939;29;20037;-80
2021/09/24 01:37:59;;;;;;;16.23;10.95;;;16.70;93.90;;;;;;4873209;29;20032;-79
2021/09/24 01:40:25;;;;;;;14.70;11.32;;;16.60;93.90;;;;;;4865391;29;20162;-78
2021/09/24 01:42:54;;;;;;;16.83;10.98;;;16.70;93.90;;;;;;4882042;29;20025;-78
2021/09/24 01:45:21;;;;;;;17.55;11.60;;;16.70;93.80;;;;;;4869255;29;20041;-78
2021/09/24 01:47:47;;;;;;;18.30;12.02;;;16.70;93.90;;;;;;4900596;29;20044;-79
2021/09/24 01:50:13;;;;;;;16.65;11.50;;;16.70;93.90;;;;;;4869129;29;20033;-79
2021/09/24 01:52:39;;;;;;;19.08;12.80;;;16.70;93.90;;;;;;4866806;29;20084;-78
2021/09/24 01:55:07;;;;;;;18.08;11.95;;;16.60;94.00;;;;;;4884138;29;20434;-78
2021/09/24 01:57:33;;;;;;;19.77;11.73;;;16.60;94.00;;;;;;4902367;29;20116;-79
2021/09/24 01:59:59;;;;;;;19.27;12.73;;;16.60;94.00;;;;;;4884808;29;20063;-79
2021/09/24 02:02:25;;;;;;;21.52;12.93;;;16.60;94.10;;;;;;4866988;29;20068;-77
2021/09/24 02:04:50;;;;;;;16.58;12.82;;;16.60;94.10;;;;;;4896214;29;20055;-79
2021/09/24 02:07:16;;;;;;;20.08;14.13;;;16.60;94.10;;;;;;4879638;29;20059;-78
2021/09/24 02:09:42;;;;;;;19.38;14.63;;;16.60;94.10;;;;;;4897715;29;20024;-79
2021/09/24 02:12:08;;;;;;;25.20;16.10;;;16.60;94.20;;;;;;4881250;29;20044;-78
2021/09/24 02:14:34;;;;;;;27.25;15.25;;;16.60;94.20;;;;;;4850193;29;20032;-78
2021/09/24 02:17:00;;;;;;;22.80;16.10;;;16.60;94.20;;;;;;4896715;29;20104;-79
2021/09/24 02:19:26;;;;;;;27.90;16.77;;;16.60;94.20;;;;;;4878623;29;20048;-80
2021/09/24 02:21:52;;;;;;;28.52;17.85;;;16.60;94.20;;;;;;4877837;29;20094;-78
2021/09/24 02:24:17;;;;;;;25.30;18.23;;;16.60;94.20;;;;;;4864217;29;20044;-78
2021/09/24 02:26:43;;;;;;;31.65;20.20;;;16.60;94.20;;;;;;4862564;29;20487;-79
2021/09/24 02:29:10;;;;;;;33.88;22.42;;;16.60;94.20;;;;;;4886018;29;20185;-78
2021/09/24 02:31:36;;;;;;;32.97;22.23;;;16.60;94.30;;;;;;4866100;29;20124;-80
2021/09/24 02:34:01;;;;;;;33.97;22.58;;;16.60;94.30;;;;;;4864678;29;20132;-78
2021/09/24 02:36:27;;;;;;;38.67;24.08;;;16.60;94.30;;;;;;4878046;29;20040;-78
2021/09/24 02:38:53;;;;;;;36.35;23.50;;;16.60;94.40;;;;;;4860203;29;20155;-79
2021/09/24 02:41:18;;;;;;;37.05;22.88;;;16.60;94.40;;;;;;4890899;29;20462;-79
2021/09/24 02:43:44;;;;;;;35.20;24.00;;;16.60;94.40;;;;;;4892306;29;20041;-79
2021/09/24 02:46:10;;;;;;;30.42;22.98;;;16.60;94.40;;;;;;4864336;29;20443;-79
2021/09/24 02:48:35;;;;;;;37.13;22.98;;;16.60;94.40;;;;;;4845332;29;20044;-79
2021/09/24 02:51:01;;;;;;;40.88;24.50;;;16.60;94.50;;;;;;4880910;29;20443;-79
2021/09/24 02:53:27;;;;;;;31.58;22.25;;;16.60;94.50;;;;;;4870312;29;20037;-79
2021/09/24 02:55:52;;;;;;;32.55;21.63;;;16.60;94.50;;;;;;4862748;29;20040;-78
2021/09/24 02:58:18;;;;;;;34.38;22.60;;;16.60;94.50;;;;;;4863216;29;20132;-79
2021/09/24 03:00:43;;;;;;;35.03;24.10;;;16.50;94.50;;;;;;4878300;29;20112;-80
2021/09/24 03:03:09;;;;;;;43.60;26.35;;;16.50;94.50;;;;;;4878465;29;20033;-79
2021/09/24 03:05:38;;;;;;;37.83;25.67;;;16.50;94.50;;;;;;4894840;29;20064;-80
2021/09/24 03:08:04;;;;;;;40.10;25.92;;;16.50;94.60;;;;;;4878884;29;20044;-79
2021/09/24 03:10:29;;;;;;;41.15;27.67;;;16.50;94.70;;;;;;4879014;29;20442;-78
2021/09/24 03:12:56;;;;;;;46.88;30.25;;;16.50;94.80;;;;;;4895317;29;20032;-79
2021/09/24 03:15:21;;;;;;;49.90;29.30;;;16.50;94.80;;;;;;4895301;29;20036;-79
2021/09/24 03:17:47;;;;;;;48.60;29.50;;;16.40;94.90;;;;;;4878658;29;20401;-79
2021/09/24 03:20:13;;;;;;;52.80;30.02;;;16.40;94.90;;;;;;4872905;29;20482;-78
2021/09/24 03:22:39;;;;;;;52.20;30.75;;;16.40;95.00;;;;;;4860132;29;20041;-79
2021/09/24 03:25:06;;;;;;;47.47;30.25;;;16.40;95.10;;;;;;4859545;29;20029;-79
2021/09/24 03:27:34;;;;;;;45.60;29.23;;;16.40;95.10;;;;;;4875264;29;20136;-78
2021/09/24 03:30:00;;;;;;;46.58;30.05;;;16.40;95.10;;;;;;4882305;29;20081;-79
2021/09/24 03:32:26;;;;;;;51.85;29.60;;;16.40;95.10;;;;;;4895539;29;20036;-79
2021/09/24 03:34:52;;;;;;;49.80;30.10;;;16.40;95.20;;;;;;4862524;29;20037;-78
2021/09/24 03:37:18;;;;;;;47.30;29.95;;;16.40;95.20;;;;;;4877815;29;20073;-78
2021/09/24 03:39:43;;;;;;;49.10;29.33;;;16.40;95.30;;;;;;4877924;29;20033;-78
2021/09/24 03:42:10;;;;;;;50.75;29.85;;;16.40;95.40;;;;;;4877485;29;20051;-77
2021/09/24 03:44:36;;;;;;;48.53;27.73;;;16.30;95.40;;;;;;4870625;29;20033;-78
2021/09/24 03:47:02;;;;;;;44.75;26.77;;;16.40;95.40;;;;;;4876343;29;20068;-79
2021/09/24 03:49:28;;;;;;;44.70;27.65;;;16.40;95.50;;;;;;4846831;29;20044;-78
2021/09/24 03:51:55;;;;;;;45.53;27.13;;;16.30;95.50;;;;;;4877907;29;20040;-79
2021/09/24 03:54:20;;;;;;;45.80;27.10;;;16.30;95.50;;;;;;4877724;29;20040;-78
2021/09/24 03:56:46;;;;;;;44.70;27.27;;;16.30;95.60;;;;;;4859047;29;20029;-78
2021/09/24 03:59:12;;;;;;;45.42;27.58;;;16.30;95.70;;;;;;4843442;29;20145;-79
2021/09/24 04:01:39;;;;;;;43.00;27.50;;;16.30;95.70;;;;;;4877689;29;20109;-79
2021/09/24 04:04:05;;;;;;;46.08;27.60;;;16.30;95.80;;;;;;4887430;29;20036;-80
2021/09/24 04:06:31;;;;;;;45.45;27.90;;;16.20;95.80;;;;;;4876324;29;20061;-80
2021/09/24 04:08:57;;;;;;;40.67;26.95;;;16.20;95.90;;;;;;4859506;29;20029;-80
2021/09/24 04:11:23;;;;;;;48.90;29.20;;;16.20;95.90;;;;;;4888538;29;20040;-80
2021/09/24 04:13:48;;;;;;;45.72;28.63;;;16.20;96.00;;;;;;4877805;29;20112;-80
2021/09/24 04:16:14;;;;;;;48.10;29.63;;;16.20;96.00;;;;;;4864860;29;20033;-80
2021/09/24 04:18:40;;;;;;;41.30;25.80;;;16.20;96.10;;;;;;4861646;29;20041;-79
2021/09/24 04:21:06;;;;;;;43.65;26.13;;;16.20;96.10;;;;;;4893777;29;20401;-79
2021/09/24 04:23:32;;;;;;;41.20;26.35;;;16.20;96.10;;;;;;4862671;29;20033;-79
2021/09/24 04:25:58;;;;;;;41.97;26.60;;;16.20;96.20;;;;;;4877742;29;20048;-78
2021/09/24 04:28:23;;;;;;;40.95;26.20;;;16.20;96.20;;;;;;4861760;29;20033;-79
2021/09/24 04:30:49;;;;;;;38.65;26.40;;;16.20;96.20;;;;;;4877589;29;20123;-80
2021/09/24 04:33:15;;;;;;;38.10;27.13;;;16.20;96.20;;;;;;4894067;29;20066;-79
2021/09/24 04:35:41;;;;;;;40.70;27.00;;;16.20;96.20;;;;;;4894250;29;20111;-79
2021/09/24 04:38:06;;;;;;;41.95;29.60;;;16.10;96.30;;;;;;4876965;29;20116;-79
2021/09/24 04:40:32;;;;;;;43.58;28.95;;;16.10;96.30;;;;;;4893379;29;20040;-79
2021/09/24 04:42:58;;;;;;;43.95;29.25;;;16.10;96.30;;;;;;4861719;29;20096;-78
2021/09/24 04:45:23;;;;;;;48.42;30.45;;;16.00;96.30;;;;;;4876900;29;20438;-79
2021/09/24 04:47:49;;;;;;;40.65;28.77;;;16.00;96.40;;;;;;4894341;29;20029;-79
2021/09/24 04:50:15;;;;;;;47.17;31.77;;;16.00;96.40;;;;;;4892997;29;20033;-79
2021/09/24 04:52:41;;;;;;;47.83;31.20;;;16.10;96.40;;;;;;4861967;29;20037;-79
2021/09/24 04:55:08;;;;;;;49.83;31.75;;;16.00;96.40;;;;;;4861120;29;20037;-79
2021/09/24 04:57:34;;;;;;;53.95;33.78;;;16.00;96.40;;;;;;4877371;29;20083;-79
2021/09/24 05:00:01;;;;;;;50.35;32.70;;;16.00;96.50;;;;;;4876672;29;20044;-79
2021/09/24 05:02:26;;;;;;;51.22;32.88;;;16.00;96.50;;;;;;4894454;29;20593;-79
2021/09/24 05:04:52;;;;;;;50.53;32.95;;;16.10;96.50;;;;;;4861631;29;20132;-78
2021/09/24 05:07:18;;;;;;;47.45;28.95;;;16.00;96.50;;;;;;4876651;29;20505;-78
2021/09/24 05:09:43;;;;;;;43.70;28.83;;;16.00;96.50;;;;;;4860794;29;20077;-80
2021/09/24 05:12:09;;;;;;;44.85;27.90;;;16.00;96.50;;;;;;4842481;29;20061;-79
2021/09/24 05:14:35;;;;;;;44.17;27.40;;;16.00;96.50;;;;;;4875528;29;20196;-79
2021/09/24 05:17:00;;;;;;;44.20;28.05;;;16.00;96.50;;;;;;4861953;29;20840;-79
2021/09/24 05:19:26;;;;;;;49.05;28.65;;;15.90;96.50;;;;;;4856126;29;20033;-79
2021/09/24 05:21:52;;;;;;;51.78;29.17;;;15.90;96.60;;;;;;4846659;29;20493;-79
2021/09/24 05:24:17;;;;;;;47.03;28.27;;;15.90;96.70;;;;;;4861326;29;20127;-79
2021/09/24 05:26:43;;;;;;;47.17;28.92;;;15.90;96.70;;;;;;4861625;29;20184;-79
2021/09/24 05:29:09;;;;;;;42.22;26.85;;;15.80;96.70;;;;;;4867748;29;20041;-79
2021/09/24 05:31:34;;;;;;;44.83;28.15;;;15.80;96.70;;;;;;4893047;29;20038;-80
2021/09/24 05:34:04;;;;;;;43.45;29.05;;;15.80;96.70;;;;;;4893173;29;20474;-79
2021/09/24 05:36:30;;;;;;;45.63;27.75;;;15.80;96.80;;;;;;4892105;29;20076;-80
2021/09/24 05:38:56;;;;;;;46.35;27.77;;;15.80;96.80;;;;;;4895542;29;20029;-79
2021/09/24 05:41:21;;;;;;;40.67;27.27;;;15.80;96.80;;;;;;4878967;29;20417;-79
2021/09/24 05:43:50;;;;;;;41.83;27.13;;;15.80;96.80;;;;;;4865093;29;20028;-80
2021/09/24 05:46:19;;;;;;;42.03;26.90;;;15.80;96.80;;;;;;4879912;29;20040;-79
2021/09/24 05:48:45;;;;;;;42.38;25.98;;;15.80;96.80;;;;;;4880047;29;20119;-79
2021/09/24 05:51:12;;;;;;;35.55;23.60;;;15.70;96.80;;;;;;4902366;29;20028;-80
2021/09/24 05:53:38;;;;;;;38.17;24.77;;;15.70;96.90;;;;;;4872223;29;20470;-80
2021/09/24 05:56:05;;;;;;;37.13;24.23;;;15.70;96.90;;;;;;4871249;29;20039;-80
2021/09/24 05:58:31;;;;;;;39.10;23.83;;;15.70;96.90;;;;;;4867477;29;20592;-80
2021/09/24 06:00:57;;;;;;;34.60;23.90;;;15.70;97.00;;;;;;4885509;29;20033;-80
2021/09/24 06:03:23;;;;;;;35.13;24.77;;;15.70;97.00;;;;;;4884466;29;20029;-80
2021/09/24 06:05:49;;;;;;;32.22;22.80;;;15.70;97.00;;;;;;4862039;29;20065;-79
2021/09/24 06:08:15;;;;;;;34.05;23.50;;;15.80;97.00;;;;;;4883823;29;20040;-80
2021/09/24 06:10:42;;;;;;;35.60;24.27;;;15.70;97.00;;;;;;4867562;29;20060;-80
2021/09/24 06:13:09;;;;;;;35.05;23.50;;;15.70;97.10;;;;;;4895171;29;20037;-79
2021/09/24 06:15:36;;;;;;;31.70;22.85;;;15.70;97.10;;;;;;4902593;29;20056;-78
2021/09/24 06:18:03;;;;;;;35.70;23.05;;;15.70;97.10;;;;;;4902707;29;20076;-80
2021/09/24 06:20:29;;;;;;;32.63;21.95;;;15.70;97.20;;;;;;4885292;29;20028;-80
2021/09/24 06:22:55;;;;;;;30.73;21.10;;;15.70;97.20;;;;;;4885635;29;20444;-80
2021/09/24 06:25:22;;;;;;;34.00;22.40;;;15.80;97.20;;;;;;4869408;29;20116;-81
2021/09/24 06:27:48;;;;;;;35.47;24.23;;;15.70;97.20;;;;;;4902259;29;20037;-81
2021/09/24 06:30:17;;;;;;;32.97;21.60;;;15.70;97.30;;;;;;4902743;29;20040;-80
2021/09/24 06:32:43;;;;;;;31.77;21.67;;;15.70;97.30;;;;;;4903789;29;20037;-79
2021/09/24 06:35:09;;;;;;;31.95;22.20;;;15.80;97.30;;;;;;4886822;29;20401;-80
2021/09/24 06:37:35;;;;;;;32.88;23.27;;;15.70;97.30;;;;;;4903310;29;20279;-81
2021/09/24 06:40:01;;;;;;;32.55;22.80;;;15.80;97.30;;;;;;4890473;29;20068;-79
2021/09/24 06:42:27;;;;;;;30.67;21.48;;;15.90;97.40;;;;;;4867776;29;20036;-81
2021/09/24 06:44:53;;;;;;;37.20;22.55;;;15.90;97.40;;;;;;4883102;29;20064;-80
2021/09/24 06:47:19;;;;;;;31.17;22.13;;;15.90;97.30;;;;;;4865696;29;20551;-80
2021/09/24 06:49:45;;;;;;;35.63;21.98;;;15.90;97.30;;;;;;4881244;29;20036;-80
2021/09/24 06:52:11;;;;;;;36.58;24.50;;;15.90;97.40;;;;;;4876860;29;20048;-78
2021/09/24 06:54:36;;;;;;;34.70;22.52;;;15.90;97.40;;;;;;4868795;29;20037;-77
2021/09/24 06:57:03;;;;;;;34.58;23.45;;;15.90;97.40;;;;;;4880129;29;20143;-78
2021/09/24 06:59:30;;;;;;;34.45;23.40;;;15.90;97.50;;;;;;4868454;29;20092;-78
2021/09/24 07:01:56;;;;;;;37.72;24.27;;;15.90;97.50;;;;;;4887974;29;20032;-78
2021/09/24 07:04:21;;;;;;;38.42;24.48;;;16.00;97.50;;;;;;4860666;29;20056;-80
2021/09/24 07:06:48;;;;;;;36.03;24.25;;;16.00;97.50;;;;;;4872265;29;20494;-77
2021/09/24 07:09:14;;;;;;;33.38;23.02;;;16.00;97.50;;;;;;4878772;29;20158;-78
2021/09/24 07:11:40;;;;;;;33.25;22.73;;;16.00;97.50;;;;;;4878396;29;20241;-78
2021/09/24 07:14:08;;;;;;;35.70;23.50;;;16.00;97.50;;;;;;4893444;29;20496;-76
2021/09/24 07:16:38;;;;;;;32.15;22.50;;;16.10;97.60;;;;;;4896512;29;20390;-77
2021/09/24 07:19:04;;;;;;;37.35;24.30;;;16.10;97.60;;;;;;4880518;29;20397;-78
2021/09/24 07:21:30;;;;;;;34.30;22.42;;;16.20;97.50;;;;;;4896875;29;20040;-76
2021/09/24 07:23:55;;;;;;;33.00;22.60;;;16.20;97.50;;;;;;4881747;29;20042;-76
2021/09/24 07:26:21;;;;;;;33.42;20.88;;;16.30;97.40;;;;;;4878997;29;20454;-76
2021/09/24 07:28:47;;;;;;;29.20;21.42;;;16.30;97.40;;;;;;4896253;29;20037;-77
2021/09/24 07:31:12;;;;;;;30.50;21.50;;;16.40;97.40;;;;;;4892754;29;20041;-76
2021/09/24 07:33:38;;;;;;;32.30;22.02;;;16.50;97.30;;;;;;4862161;29;20033;-78
2021/09/24 07:36:04;;;;;;;33.42;22.80;;;16.50;97.30;;;;;;4880019;29;20033;-76
2021/09/24 07:38:30;;;;;;;36.15;24.80;;;16.50;97.20;;;;;;4881518;29;20037;-77
2021/09/24 07:40:56;;;;;;;29.67;22.40;;;16.60;97.20;;;;;;4875468;29;20033;-76
2021/09/24 07:43:22;;;;;;;28.15;21.55;;;16.70;97.10;;;;;;4875008;29;20101;-76
2021/09/24 07:45:48;;;;;;;32.67;22.17;;;16.80;97.00;;;;;;4899716;29;20090;-75
2021/09/24 07:48:14;;;;;;;31.55;22.38;;;16.80;96.90;;;;;;4887617;29;20385;-77
2021/09/24 07:50:39;;;;;;;27.55;19.98;;;16.90;96.80;;;;;;4896081;29;20040;-77
2021/09/24 07:53:05;;;;;;;35.50;22.33;;;17.00;96.70;;;;;;4885536;29;20044;-77
2021/09/24 07:55:31;;;;;;;26.48;19.83;;;17.20;96.50;;;;;;4867375;29;20036;-78
2021/09/24 07:57:57;;;;;;;31.65;20.67;;;17.20;96.40;;;;;;4876908;29;20043;-77
2021/09/24 08:00:25;;;;;;;27.05;19.65;;;17.40;96.20;;;;;;4869342;29;20040;-76
2021/09/24 08:02:51;;;;;;;24.98;18.85;;;17.40;96.00;;;;;;4851932;29;20055;-76
2021/09/24 08:05:17;;;;;;;25.00;18.05;;;17.50;95.80;;;;;;4899183;29;20052;-78
2021/09/24 08:07:43;;;;;;;22.83;17.70;;;17.60;95.60;;;;;;4862149;29;20053;-77
2021/09/24 08:10:09;;;;;;;26.58;18.92;;;17.70;95.50;;;;;;4862093;29;20047;-77
2021/09/24 08:12:35;;;;;;;23.33;17.40;;;17.70;95.30;;;;;;4880854;29;20114;-77
2021/09/24 08:15:01;;;;;;;21.05;17.33;;;17.80;95.20;;;;;;4879688;29;20052;-77
2021/09/24 08:17:26;;;;;;;19.42;16.08;;;17.80;95.10;;;;;;4896273;29;20473;-77
2021/09/24 08:19:52;;;;;;;21.40;16.33;;;17.90;94.90;;;;;;4899880;29;20039;-77
2021/09/24 08:22:18;;;;;;;20.83;16.92;;;18.00;94.80;;;;;;4869145;29;20041;-78
2021/09/24 08:24:43;;;;;;;21.40;16.00;;;18.00;94.60;;;;;;4895051;29;20053;-78
2021/09/24 08:27:10;;;;;;;22.52;16.70;;;18.00;94.40;;;;;;4893580;29;20043;-78
2021/09/24 08:29:37;;;;;;;20.80;16.58;;;18.00;94.20;;;;;;4880700;29;20044;-79
2021/09/24 08:32:04;;;;;;;21.27;15.57;;;18.00;94.10;;;;;;4898825;29;20036;-77
2021/09/24 08:34:30;;;;;;;20.55;15.23;;;18.00;94.00;;;;;;4883904;29;20048;-78
2021/09/24 08:36:55;;;;;;;20.80;14.55;;;18.00;93.80;;;;;;4881299;29;20529;-78
2021/09/24 08:39:21;;;;;;;20.10;15.18;;;18.00;93.70;;;;;;4888693;29;20040;-77
2021/09/24 08:41:47;;;;;;;20.67;15.35;;;18.00;93.50;;;;;;4897479;29;20040;-77
2021/09/24 08:44:13;;;;;;;22.42;16.45;;;18.00;93.40;;;;;;4868725;29;20041;-77
2021/09/24 08:46:39;;;;;;;21.80;17.17;;;18.10;93.30;;;;;;4885277;29;20501;-78
2021/09/24 08:49:05;;;;;;;20.75;16.73;;;18.10;93.10;;;;;;4886609;29;20033;-77
2021/09/24 08:51:31;;;;;;;21.70;16.30;;;18.20;93.00;;;;;;4882816;29;20044;-78
2021/09/24 08:53:57;;;;;;;23.63;16.13;;;18.40;92.70;;;;;;4884867;29;20909;-78
2021/09/24 08:56:23;;;;;;;20.45;14.93;;;18.60;92.50;;;;;;4898430;29;20152;-77
2021/09/24 08:58:49;;;;;;;18.33;15.27;;;18.70;92.10;;;;;;4883285;29;20044;-78
2021/09/24 09:01:15;;;;;;;21.30;15.45;;;18.80;91.80;;;;;;4900524;29;20119;-77
2021/09/24 09:03:43;;;;;;;17.17;13.98;;;18.90;91.50;;;;;;4903990;29;20524;-79
2021/09/24 09:06:12;;;;;;;17.92;14.73;;;18.90;91.40;;;;;;4881114;29;20465;-78
2021/09/24 09:08:38;;;;;;;17.52;13.98;;;18.90;91.10;;;;;;4886501;29;20056;-78
2021/09/24 09:11:19;;;;;;;18.92;14.85;;;18.90;91.10;;;;;;4852066;29;20048;-77
2021/09/24 09:13:53;;;;;;;20.15;14.77;;;18.90;91.00;;;;;;4889652;29;20052;-77
2021/09/24 09:16:26;;;;;;;17.92;12.32;;;18.80;91.00;;;;;;4894293;29;20049;-79
2021/09/24 09:19:09;;;;;;;14.40;12.90;;;18.80;91.00;;;;;;4879239;29;20028;-78
2021/09/24 09:21:42;;;;;;;14.73;12.00;;;18.80;91.00;;;;;;4893457;29;20119;-77
2021/09/24 09:24:16;;;;;;;14.68;11.98;;;18.80;90.90;;;;;;4876856;29;20033;-80
2021/09/24 09:26:42;;;;;;;19.02;13.10;;;18.80;90.80;;;;;;4890790;29;20139;-80
2021/09/24 09:29:11;;;;;;;17.90;12.90;;;18.80;90.80;;;;;;4894190;29;20131;-78
2021/09/24 09:31:38;;;;;;;13.95;12.40;;;18.80;90.70;;;;;;4892413;29;20163;-78
2021/09/24 09:34:11;;;;;;;19.42;13.60;;;18.80;90.60;;;;;;4881257;29;20048;-78
2021/09/24 09:36:40;;;;;;;19.08;13.13;;;18.90;90.50;;;;;;4887184;29;20045;-78
2021/09/24 09:39:11;;;;;;;15.50;12.52;;;18.90;90.40;;;;;;4888898;29;20029;-77
2021/09/24 09:41:49;;;;;;;15.93;12.75;;;18.90;90.30;;;;;;4873254;29;20049;-78
2021/09/24 09:44:27;;;;;;;13.27;11.38;;;18.90;90.20;;;;;;4872551;29;20041;-78
2021/09/24 09:46:53;;;;;;;17.23;13.15;;;18.90;90.30;;;;;;4889796;29;20067;-76
2021/09/24 09:49:19;;;;;;;18.95;13.18;;;19.00;90.30;;;;;;4871907;29;20079;-79
2021/09/24 09:51:47;;;;;;;17.90;12.85;;;19.00;90.10;;;;;;4867619;29;20099;-78
2021/09/24 09:54:33;;;;;;;15.60;12.05;;;19.00;90.00;;;;;;4883901;29;20045;-78
2021/09/24 09:57:18;;;;;;;16.25;11.35;;;19.20;89.70;;;;;;4890668;29;20048;-77
2021/09/24 09:59:52;;;;;;;17.00;11.75;;;19.30;89.20;;;;;;4872446;29;20025;-80
2021/09/24 10:02:33;;;;;;;12.82;11.05;;;19.40;88.80;;;;;;4873257;29;20043;-78
2021/09/24 10:05:01;;;;;;;14.52;11.32;;;19.50;88.00;;;;;;4870322;29;20040;-78
2021/09/24 10:07:29;;;;;;;11.80;10.20;;;19.50;87.70;;;;;;4885915;29;20056;-78
2021/09/24 10:10:14;;;;;;;13.98;11.23;;;19.50;87.60;;;;;;4898650;29;20033;-79
2021/09/24 10:12:41;;;;;;;15.13;10.80;;;19.60;87.40;;;;;;4893955;29;20032;-78
2021/09/24 10:15:11;;;;;;;13.70;10.38;;;19.60;86.60;;;;;;4893331;29;20033;-78
2021/09/24 10:17:37;;;;;;;12.82;11.02;;;19.70;86.60;;;;;;4898675;29;20036;-78
2021/09/24 10:20:05;;;;;;;15.00;10.43;;;19.80;86.40;;;;;;4882589;29;20116;-78
2021/09/24 10:22:32;;;;;;;13.23;10.95;;;19.90;86.20;;;;;;4880608;29;20485;-78
2021/09/24 10:24:57;;;;;;;18.00;11.65;;;20.00;85.70;;;;;;4867145;29;20047;-77
2021/09/24 10:27:25;;;;;;;12.93;10.63;;;20.20;85.50;;;;;;4884943;29;20052;-81
2021/09/24 10:29:52;;;;;;;12.48;9.48;;;20.40;84.70;;;;;;4876828;29;20036;-79
2021/09/24 10:32:26;;;;;;;14.45;10.30;;;20.60;84.20;;;;;;4888562;29;20056;-78
2021/09/24 10:35:14;;;;;;;13.35;10.52;;;20.70;83.50;;;;;;4882470;29;20047;-79
2021/09/24 10:37:45;;;;;;;12.68;9.80;;;20.80;82.60;;;;;;4902155;29;20087;-77
2021/09/24 10:40:31;;;;;;;15.40;9.20;;;20.90;82.40;;;;;;4880724;29;20044;-79
2021/09/24 10:43:01;;;;;;;14.18;9.25;;;20.90;82.40;;;;;;4868404;29;20064;-78
2021/09/24 10:45:41;;;;;;;12.10;9.13;;;20.90;82.20;;;;;;4896955;29;20140;-77
2021/09/24 10:48:23;;;;;;;12.18;9.20;;;20.90;82.30;;;;;;4866789;29;20028;-78
2021/09/24 10:50:57;;;;;;;10.77;8.65;;;20.90;82.20;;;;;;4896061;29;20029;-79
2021/09/24 10:53:29;;;;;;;10.88;7.50;;;21.00;81.50;;;;;;4898918;29;20028;-76
2021/09/24 10:55:55;;;;;;;11.23;7.55;;;21.00;81.10;;;;;;4882528;29;20032;-78
2021/09/24 10:58:27;;;;;;;7.95;6.85;;;21.10;80.70;;;;;;4884375;29;20358;-78
2021/09/24 11:01:01;;;;;;;10.10;6.75;;;21.20;80.00;;;;;;4863776;29;20029;-78
2021/09/24 11:03:28;;;;;;;10.82;6.82;;;21.40;79.50;;;;;;4865126;29;20042;-78
2021/09/24 11:05:57;;;;;;;8.80;6.57;;;21.50;78.90;;;;;;4863776;29;20055;-78
2021/09/24 11:08:44;;;;;;;7.88;5.40;;;21.50;78.30;;;;;;4863829;29;20199;-78
2021/09/24 11:11:13;;;;;;;8.50;5.82;;;21.60;77.70;;;;;;4861660;29;20044;-78
2021/09/24 11:13:45;;;;;;;7.03;5.80;;;21.70;77.50;;;;;;4880360;29;20036;-76
2021/09/24 11:16:13;;;;;;;;;;;21.70;77.10;;;;;;4886390;29;20048;-77
2021/09/24 11:18:59;;;;;;;8.82;5.70;;;21.70;76.90;;;;;;4870224;29;19930;-77
2021/09/24 11:21:31;;;;;;;12.75;6.55;;;21.60;77.20;;;;;;4865812;29;20039;-77
2021/09/24 11:23:59;;;;;;;10.37;5.70;;;21.60;76.60;;;;;;4868691;29;20041;-78
2021/09/24 11:26:29;;;;;;;6.93;5.18;;;21.70;76.70;;;;;;4881883;29;20048;-78
2021/09/24 11:29:07;;;;;;;7.85;5.25;;;21.70;76.80;;;;;;4882559;29;20036;-78
2021/09/24 11:32:01;;;;;;;7.93;4.75;;;21.90;76.50;;;;;;4880170;29;20024;-79
2021/09/24 11:34:33;;;;;;;9.18;5.57;;;21.90;76.30;;;;;;4863318;29;20033;-78
2021/09/24 11:37:03;;;;;;;10.27;5.97;;;21.80;76.00;;;;;;4879297;29;20243;-78
2021/09/24 11:39:29;;;;;;;6.63;4.95;;;21.90;76.10;;;;;;4881920;29;20052;-78
2021/09/24 11:42:08;;;;;;;9.18;5.20;;;22.00;76.00;;;;;;4862467;29;20048;-78
2021/09/24 11:44:46;;;;;;;6.38;4.80;;;22.30;75.40;;;;;;4883496;29;20561;-78
2021/09/24 11:47:39;;;;;;;5.63;4.40;;;22.50;74.20;;;;;;4881158;29;20039;-78
2021/09/24 11:50:14;;;;;;;5.72;4.13;;;22.60;73.50;;;;;;4897933;29;20504;-79
2021/09/24 11:52:56;;;;;;;4.72;3.13;;;22.50;73.30;;;;;;4898912;29;20072;-76
2021/09/24 11:55:29;;;;;;;4.20;3.13;;;22.30;73.50;;;;;;4875921;29;20492;-76
2021/09/24 11:58:17;;;;;;;6.13;3.95;;;22.30;73.80;;;;;;4874188;29;20391;-77
2021/09/24 12:00:49;;;;;;;4.93;4.00;;;22.20;74.10;;;;;;4892999;29;20036;-78
2021/09/24 12:03:22;;;;;;;4.83;3.50;;;22.10;74.20;;;;;;4867749;29;20386;-77
2021/09/24 12:06:10;;;;;;;8.68;4.03;;;22.10;74.60;;;;;;4876852;29;20040;-76
2021/09/24 12:08:41;;;;;;;7.03;4.57;;;22.20;74.70;;;;;;4860663;29;20045;-76
2021/09/24 12:11:11;;;;;;;9.63;4.00;;;22.30;74.50;;;;;;4873123;29;20028;-77
2021/09/24 12:13:52;;;;;;;7.28;4.32;;;22.40;74.10;;;;;;4877778;29;20032;-76
2021/09/24 12:16:23;;;;;;;7.68;4.60;;;22.50;74.00;;;;;;4874462;29;20043;-78
2021/09/24 12:18:56;;;;;;;6.38;4.53;;;22.50;73.70;;;;;;4881648;29;20032;-78
2021/09/24 12:21:48;;;;;;;6.43;4.88;;;22.50;73.70;;;;;;4887067;29;20282;-78
2021/09/24 12:24:16;;;;;;;6.93;4.40;;;22.50;73.90;;;;;;4870090;29;20040;-78
2021/09/24 12:26:47;;;;;;;9.10;4.80;;;22.40;74.20;;;;;;4865050;29;20036;-77
2021/09/24 12:29:17;;;;;;;5.22;4.32;;;22.50;74.10;;;;;;4859681;29;20033;-79
2021/09/24 12:31:46;;;;;;;6.03;4.32;;;22.80;73.50;;;;;;4889873;29;20041;-78
2021/09/24 12:34:21;;;;;;;5.75;4.68;;;22.90;73.00;;;;;;4887201;29;20454;-79